Time;durP1;ratioP1;P1;durP2;ratioP2;P2;SDS_P1;SDS_P2;PMS_P1;PMS_P2;Temp;Humidity;BMP_temperature;BMP_pressure;BME280_temperature;BME280_humidity;BME280_pressure;Samples;Min_cycle;Max_cycle;Signal;HPM_P1;HPM_P2
2024/01/14 00:01:45;;;;;;;;;;;;;;;22.12;30.22;101399.78;5040490;28;19916;-72
2024/01/14 00:04:10;;;;;;;;;;;;;;;22.09;30.23;101400.13;5035377;28;20011;-71
2024/01/14 00:06:35;;;;;;;;;;;;;;;22.08;30.32;101395.72;5031645;28;20016;-72
2024/01/14 00:09:02;;;;;;;;;;;;;;;22.06;29.96;101395.06;5039919;28;20422;-72
2024/01/14 00:11:27;;;;;;;;;;;;;;;22.04;30.42;101394.38;5035633;28;19920;-72
2024/01/14 00:13:52;;;;;;;;;;;;;;;22.04;30.06;101388.13;5036207;28;19988;-71
2024/01/14 00:16:17;;;;;;;;;;;;;;;22.01;30.36;101383.09;5036878;28;19952;-72
2024/01/14 00:18:43;;;;;;;;;;;;;;;22.00;30.26;101384.09;5037612;28;19919;-71
2024/01/14 00:21:08;;;;;;;;;;;;;;;21.96;30.34;101373.63;5038700;28;19917;-72
2024/01/14 00:23:34;;;;;;;;;;;;;;;21.95;30.40;101381.91;5042226;28;19921;-72
2024/01/14 00:25:59;;;;;;;;;;;;;;;21.93;30.50;101379.38;5034503;28;19921;-72
2024/01/14 00:28:24;;;;;;;;;;;;;;;21.91;30.28;101380.56;5035642;28;19922;-72
2024/01/14 00:30:49;;;;;;;;;;;;;;;21.88;30.41;101370.97;5042378;28;19917;-71
2024/01/14 00:33:15;;;;;;;;;;;;;;;21.87;30.48;101373.81;5042595;28;19924;-71
2024/01/14 00:35:40;;;;;;;;;;;;;;;21.86;30.24;101364.03;5035295;28;19948;-72
2024/01/14 00:38:05;;;;;;;;;;;;;;;21.84;30.48;101361.50;5030685;28;19922;-72
2024/01/14 00:40:31;;;;;;;;;;;;;;;21.82;30.38;101357.28;5033486;28;19917;-71
2024/01/14 00:42:56;;;;;;;;;;;;;;;21.81;30.55;101350.19;5041449;28;19917;-71
2024/01/14 00:45:21;;;;;;;;;;;;;;;21.80;30.54;101351.22;5040968;28;19913;-72
2024/01/14 00:47:46;;;;;;;;;;;;;;;21.81;30.57;101358.31;5034089;28;19917;-72
2024/01/14 00:50:11;;;;;;;;;;;;;;;21.79;30.50;101354.91;5035664;28;19920;-72
2024/01/14 00:52:37;;;;;;;;;;;;;;;21.79;30.25;101354.91;5046230;28;19920;-72
2024/01/14 00:55:02;;;;;;;;;;;;;;;21.78;30.40;101345.13;5052217;28;19913;-72
2024/01/14 00:57:27;;;;;;;;;;;;;;;21.76;30.39;101347.16;5039537;28;20524;-72
2024/01/14 00:59:52;;;;;;;;;;;;;;;21.73;30.46;101334.81;5041644;28;19914;-72
2024/01/14 01:02:18;;;;;;;;;;;;;;;21.71;30.39;101331.47;5031086;28;20214;-72
2024/01/14 01:04:43;;;;;;;;;;;;;;;21.71;30.34;101331.47;5035721;28;19925;-72
2024/01/14 01:07:08;;;;;;;;;;;;;;;21.69;30.55;101322.66;5039207;28;19964;-72
2024/01/14 01:09:33;;;;;;;;;;;;;;;21.67;30.53;101320.16;5046016;28;19962;-71
2024/01/14 01:11:59;;;;;;;;;;;;;;;21.69;30.64;101319.97;5048194;28;20079;-72
2024/01/14 01:14:24;;;;;;;;;;;;;;;21.68;30.49;101315.56;5032879;28;19913;-72
2024/01/14 01:16:49;;;;;;;;;;;;;;;21.69;30.56;101314.53;5035722;28;19936;-71
2024/01/14 01:19:14;;;;;;;;;;;;;;;21.68;30.55;101319.13;5043319;28;19924;-71
2024/01/14 01:21:39;;;;;;;;;;;;;;;21.70;30.55;101314.34;5045695;28;19939;-71
2024/01/14 01:24:05;;;;;;;;;;;;;;;21.70;30.39;101306.25;5044120;28;19921;-71
2024/01/14 01:26:30;;;;;;;;;;;;;;;21.71;30.20;101302.53;5034390;28;19971;-71
2024/01/14 01:28:55;;;;;;;;;;;;;;;21.73;30.45;101301.50;5036426;28;19917;-71
2024/01/14 01:31:20;;;;;;;;;;;;;;;21.74;30.41;101305.91;5035346;28;19959;-72
2024/01/14 01:33:45;;;;;;;;;;;;;;;21.76;30.52;101306.56;5043292;28;19918;-71
2024/01/14 01:36:10;;;;;;;;;;;;;;;21.76;30.45;101302.00;5048864;28;20286;-72
2024/01/14 01:38:36;;;;;;;;;;;;;;;21.78;30.38;101296.41;5040622;28;19914;-72
2024/01/14 01:41:01;;;;;;;;;;;;;;;21.81;30.37;101298.75;5050599;28;19948;-72
2024/01/14 01:43:26;;;;;;;;;;;;;;;21.83;30.12;101291.28;5046390;28;19997;-72
2024/01/14 01:45:52;;;;;;;;;;;;;;;21.81;30.00;101288.78;5037113;28;19921;-72
2024/01/14 01:48:19;;;;;;;;;;;;;;;21.81;30.11;101288.78;5035829;28;19913;-72
2024/01/14 01:50:44;;;;;;;;;;;;;;;21.83;30.32;101289.41;5036872;28;19969;-72
2024/01/14 01:53:09;;;;;;;;;;;;;;;21.85;30.16;101283.84;5041903;28;19935;-72
2024/01/14 01:55:34;;;;;;;;;;;;;;;21.86;29.93;101278.25;5041353;28;19918;-72
2024/01/14 01:57:59;;;;;;;;;;;;;;;21.86;29.88;101280.94;5042194;28;19917;-72
2024/01/14 02:00:25;;;;;;;;;;;;;;;21.88;30.18;101278.91;5042031;28;19943;-72
2024/01/14 02:02:50;;;;;;;;;;;;;;;21.89;29.94;101272.47;5037840;28;19917;-72
2024/01/14 02:05:15;;;;;;;;;;;;;;;21.90;29.86;101274.16;5042915;28;19924;-71
2024/01/14 02:07:40;;;;;;;;;;;;;;;21.92;29.89;101276.69;5044541;28;20377;-72
2024/01/14 02:10:07;;;;;;;;;;;;;;;21.94;30.19;101269.22;5049883;28;20436;-72
2024/01/14 02:12:32;;;;;;;;;;;;;;;21.96;29.87;101273.44;5040496;28;19985;-72
2024/01/14 02:14:57;;;;;;;;;;;;;;;21.99;29.67;101274.09;5032020;28;19913;-72
2024/01/14 02:17:22;;;;;;;;;;;;;;;21.99;30.00;101264.09;5043548;28;19925;-72
2024/01/14 02:19:47;;;;;;;;;;;;;;;22.01;30.02;101263.94;5038915;28;19916;-72
2024/01/14 02:22:17;;;;;;;;;;;;;;;22.04;29.71;101261.69;5037813;28;19985;-72
2024/01/14 02:24:42;;;;;;;;;;;;;;;22.05;29.82;101262.56;5036033;28;19917;-72
2024/01/14 02:27:08;;;;;;;;;;;;;;;22.08;29.95;101252.19;5041381;28;19924;-72
2024/01/14 02:29:33;;;;;;;;;;;;;;;22.12;29.68;101253.53;5042627;28;19917;-72
2024/01/14 02:31:58;;;;;;;;;;;;;;;22.15;29.58;101249.63;5053474;28;19940;-71
2024/01/14 02:34:23;;;;;;;;;;;;;;;22.16;29.46;101251.31;5047874;28;19920;-72
2024/01/14 02:36:48;;;;;;;;;;;;;;;22.17;29.70;101247.56;5040373;28;19972;-72
2024/01/14 02:39:16;;;;;;;;;;;;;;;22.18;29.53;101255.53;5038757;28;20856;-72
2024/01/14 02:41:42;;;;;;;;;;;;;;;22.20;29.38;101248.06;5036339;28;19913;-72
2024/01/14 02:44:07;;;;;;;;;;;;;;;22.23;29.76;101252.28;5033856;28;19919;-71
2024/01/14 02:46:32;;;;;;;;;;;;;;;22.26;29.56;101251.06;5041341;28;19952;-72
2024/01/14 02:48:57;;;;;;;;;;;;;;;22.28;29.40;101247.16;5037113;28;19918;-72
2024/01/14 02:51:23;;;;;;;;;;;;;;;22.32;29.23;101239.50;5046179;28;19969;-72
2024/01/14 02:53:48;;;;;;;;;;;;;;;22.35;29.21;101244.56;5038373;28;20004;-72
2024/01/14 02:56:13;;;;;;;;;;;;;;;22.36;29.17;101240.81;5035291;28;20000;-72
2024/01/14 02:58:38;;;;;;;;;;;;;;;22.37;29.49;101235.22;5040350;28;19917;-72
2024/01/14 03:01:04;;;;;;;;;;;;;;;22.41;29.25;101233.81;5037279;28;20003;-72
2024/01/14 03:03:29;;;;;;;;;;;;;;;22.44;29.35;101229.91;5053386;28;19984;-72
2024/01/14 03:05:54;;;;;;;;;;;;;;;22.48;29.31;101233.09;5044008;28;19921;-72
2024/01/14 03:08:19;;;;;;;;;;;;;;;22.50;29.23;101225.63;5042886;28;19977;-72
2024/01/14 03:10:44;;;;;;;;;;;;;;;22.53;28.87;101228.81;5035186;28;19952;-72
2024/01/14 03:13:10;;;;;;;;;;;;;;;22.56;28.85;101223.03;5033812;28;19980;-72
2024/01/14 03:15:35;;;;;;;;;;;;;;;22.58;29.14;101226.38;5038304;28;19948;-71
2024/01/14 03:18:00;;;;;;;;;;;;;;;22.58;29.04;101220.94;5045179;28;19928;-72
2024/01/14 03:20:25;;;;;;;;;;;;;;;22.60;28.90;101210.78;5036124;28;19918;-72
2024/01/14 03:22:50;;;;;;;;;;;;;;;22.62;28.94;101208.72;5037593;28;19923;-72
2024/01/14 03:25:15;;;;;;;;;;;;;;;22.65;28.94;101207.50;5038707;28;19924;-72
2024/01/14 03:27:41;;;;;;;;;;;;;;;22.67;28.92;101208.16;5037463;28;19917;-72
2024/01/14 03:30:06;;;;;;;;;;;;;;;22.68;28.82;101207.13;5042401;28;19980;-71
2024/01/14 03:32:31;;;;;;;;;;;;;;;22.71;28.76;101212.19;5037022;28;19952;-72
2024/01/14 03:34:57;;;;;;;;;;;;;;;22.72;28.84;101211.16;5033751;28;19936;-72
2024/01/14 03:37:22;;;;;;;;;;;;;;;22.76;28.76;101207.03;5039031;28;19921;-72
2024/01/14 03:39:48;;;;;;;;;;;;;;;22.80;28.50;101204.78;5036536;28;19913;-72
2024/01/14 03:42:14;;;;;;;;;;;;;;;22.83;28.68;101197.13;5044094;28;19952;-72
2024/01/14 03:44:39;;;;;;;;;;;;;;;22.86;28.58;101196.75;5037187;28;19920;-72
2024/01/14 03:47:04;;;;;;;;;;;;;;;22.91;28.67;101197.06;5029150;28;19928;-72
2024/01/14 03:49:30;;;;;;;;;;;;;;;22.91;28.66;101191.66;5042375;28;20881;-72
2024/01/14 03:51:55;;;;;;;;;;;;;;;22.92;28.59;101193.31;5042284;28;19913;-72
2024/01/14 03:54:20;;;;;;;;;;;;;;;22.97;28.46;101187.31;5043287;28;19914;-72
2024/01/14 03:56:45;;;;;;;;;;;;;;;22.99;28.38;101184.44;5034882;28;19918;-72
2024/01/14 03:59:10;;;;;;;;;;;;;;;22.99;28.38;101190.72;5032540;28;20391;-71
2024/01/14 04:01:36;;;;;;;;;;;;;;;23.00;28.44;101184.25;5034327;28;19928;-72
2024/01/14 04:04:02;;;;;;;;;;;;;;;22.99;28.23;101182.56;5040672;28;19916;-72
2024/01/14 04:06:27;;;;;;;;;;;;;;;22.99;28.47;101177.16;5038365;28;19920;-72
2024/01/14 04:08:52;;;;;;;;;;;;;;;22.99;28.15;101177.16;5032578;28;20381;-72
2024/01/14 04:11:18;;;;;;;;;;;;;;;23.00;28.26;101178.81;5040517;28;20432;-72
2024/01/14 04:13:43;;;;;;;;;;;;;;;23.01;28.50;101168.81;5055178;28;19913;-72
2024/01/14 04:16:08;;;;;;;;;;;;;;;23.00;28.30;101167.13;5049724;28;20184;-72
2024/01/14 04:18:35;;;;;;;;;;;;;;;23.01;28.21;101168.81;5044440;28;19913;-71
2024/01/14 04:21:00;;;;;;;;;;;;;;;23.02;28.38;101165.91;5038364;28;19924;-71
2024/01/14 04:23:25;;;;;;;;;;;;;;;23.02;28.29;101165.06;5031362;28;19914;-72
2024/01/14 04:25:50;;;;;;;;;;;;;;;23.03;28.25;101150.50;5039786;28;19924;-71
2024/01/14 04:28:15;;;;;;;;;;;;;;;23.06;28.03;101155.53;5042150;28;19944;-72
2024/01/14 04:30:40;;;;;;;;;;;;;;;23.07;28.25;101157.22;5045559;28;19913;-72
2024/01/14 04:33:06;;;;;;;;;;;;;;;23.09;27.97;101155.97;5041475;28;19914;-73
2024/01/14 04:35:31;;;;;;;;;;;;;;;23.08;28.03;101159.72;5035447;28;20792;-72
2024/01/14 04:37:56;;;;;;;;;;;;;;;23.07;28.06;101158.06;5033429;28;19914;-72
2024/01/14 04:40:21;;;;;;;;;;;;;;;23.11;28.17;101150.38;5044902;28;19919;-72
2024/01/14 04:42:46;;;;;;;;;;;;;;;23.13;28.17;101140.19;5044488;28;19921;-72
2024/01/14 04:45:11;;;;;;;;;;;;;;;23.12;28.22;101136.63;5042969;28;19917;-72
2024/01/14 04:47:37;;;;;;;;;;;;;;;23.14;28.04;101136.44;5033208;28;20575;-72
2024/01/14 04:50:02;;;;;;;;;;;;;;;23.12;27.98;101136.63;5035940;28;20408;-72
2024/01/14 04:52:27;;;;;;;;;;;;;;;23.14;28.05;101139.13;5034336;28;19917;-72
2024/01/14 04:54:53;;;;;;;;;;;;;;;23.12;28.05;101135.78;5045243;28;19997;-72
2024/01/14 04:57:18;;;;;;;;;;;;;;;23.09;28.21;101133.44;5040380;28;19923;-72
2024/01/14 04:59:43;;;;;;;;;;;;;;;23.07;28.22;101130.94;5047559;28;19913;-71
2024/01/14 05:02:08;;;;;;;;;;;;;;;23.04;28.09;101138.63;5044075;28;19912;-71
2024/01/14 05:04:34;;;;;;;;;;;;;;;23.03;27.99;101137.78;5040931;28;19920;-72
2024/01/14 05:06:59;;;;;;;;;;;;;;;23.01;28.25;101130.84;5035161;28;19933;-72
2024/01/14 05:09:24;;;;;;;;;;;;;;;22.98;28.47;101129.38;5031152;28;19926;-72
2024/01/14 05:11:49;;;;;;;;;;;;;;;22.97;28.37;101132.25;5035717;28;19924;-72
2024/01/14 05:14:14;;;;;;;;;;;;;;;22.94;28.08;101134.34;5035704;28;20011;-72
2024/01/14 05:16:40;;;;;;;;;;;;;;;22.94;28.43;101130.78;5036507;28;19912;-72
2024/01/14 05:19:05;;;;;;;;;;;;;;;22.93;28.35;101132.63;5039523;28;19928;-72
2024/01/14 05:21:30;;;;;;;;;;;;;;;22.90;28.50;101133.03;5034924;28;19932;-71
2024/01/14 05:23:55;;;;;;;;;;;;;;;22.91;28.43;101132.00;5041872;28;19925;-72
2024/01/14 05:26:20;;;;;;;;;;;;;;;22.90;28.32;101119.47;5038834;28;19921;-71
2024/01/14 05:28:45;;;;;;;;;;;;;;;22.89;28.25;101122.31;5041589;28;20371;-72
2024/01/14 05:31:11;;;;;;;;;;;;;;;22.88;28.48;101126.06;5039403;28;19913;-72
2024/01/14 05:33:36;;;;;;;;;;;;;;;22.86;28.43;101118.13;5037188;28;19919;-72
2024/01/14 05:36:01;;;;;;;;;;;;;;;22.84;28.61;101111.22;5039223;28;19917;-71
2024/01/14 05:38:26;;;;;;;;;;;;;;;22.82;28.62;101106.00;5038432;28;19924;-72
2024/01/14 05:40:51;;;;;;;;;;;;;;;22.80;28.40;101104.50;5036352;28;19920;-72
2024/01/14 05:43:17;;;;;;;;;;;;;;;22.78;28.46;101096.56;5035125;28;19985;-72
2024/01/14 05:45:42;;;;;;;;;;;;;;;22.77;28.57;101097.59;5037386;28;19913;-72
2024/01/14 05:48:07;;;;;;;;;;;;;;;22.77;28.69;101103.03;5040470;28;20008;-72
2024/01/14 05:50:33;;;;;;;;;;;;;;;22.75;28.42;101093.38;5040598;28;20031;-71
2024/01/14 05:52:58;;;;;;;;;;;;;;;22.72;28.85;101083.75;5045134;28;19913;-72
2024/01/14 05:55:23;;;;;;;;;;;;;;;22.73;28.67;101090.88;5042127;28;19987;-71
2024/01/14 05:57:48;;;;;;;;;;;;;;;22.70;28.50;101093.94;5034622;28;19913;-71
2024/01/14 06:00:14;;;;;;;;;;;;;;;22.67;28.70;101088.91;5038097;28;19918;-71
2024/01/14 06:02:39;;;;;;;;;;;;;;;22.65;28.57;101088.25;5029147;28;19920;-71
2024/01/14 06:05:04;;;;;;;;;;;;;;;22.64;28.67;101078.44;5032569;28;19913;-72
2024/01/14 06:07:29;;;;;;;;;;;;;;;22.62;28.93;101084.06;5032876;28;20020;-72
2024/01/14 06:09:54;;;;;;;;;;;;;;;22.61;28.77;101076.13;5040672;28;20356;-71
2024/01/14 06:12:20;;;;;;;;;;;;;;;22.58;28.54;101071.91;5042446;28;19913;-72
2024/01/14 06:14:45;;;;;;;;;;;;;;;22.57;28.68;101066.69;5033593;28;19944;-72
2024/01/14 06:17:10;;;;;;;;;;;;;;;22.55;28.71;101072.28;5035289;28;19952;-72
2024/01/14 06:19:35;;;;;;;;;;;;;;;22.55;28.75;101058.72;5035999;28;19928;-71
2024/01/14 06:22:00;;;;;;;;;;;;;;;22.53;28.78;101062.66;5049717;28;19917;-72
2024/01/14 06:24:26;;;;;;;;;;;;;;;22.52;29.00;101061.84;5053742;28;19921;-72
2024/01/14 06:26:52;;;;;;;;;;;;;;;22.50;28.98;101061.16;5045147;28;19923;-71
2024/01/14 06:29:17;;;;;;;;;;;;;;;22.49;29.03;101066.78;5046004;28;19980;-72
2024/01/14 06:31:45;;;;;;;;;;;;;;;22.46;28.70;101055.28;5030492;28;19914;-72
2024/01/14 06:34:10;;;;;;;;;;;;;;;22.45;28.80;101052.78;5041384;28;19940;-71
2024/01/14 06:36:35;;;;;;;;;;;;;;;22.44;28.94;101057.34;5043865;28;19968;-72
2024/01/14 06:39:00;;;;;;;;;;;;;;;22.43;28.90;101052.97;5045194;28;19917;-72
2024/01/14 06:41:26;;;;;;;;;;;;;;;22.41;29.11;101046.06;5040488;28;19917;-72
2024/01/14 06:43:51;;;;;;;;;;;;;;;22.40;28.79;101052.50;5037356;28;19941;-72
2024/01/14 06:46:16;;;;;;;;;;;;;;;22.38;29.01;101043.72;5043113;28;19924;-72
2024/01/14 06:48:42;;;;;;;;;;;;;;;22.35;29.02;101036.81;5037775;28;19932;-72
2024/01/14 06:51:07;;;;;;;;;;;;;;;22.34;28.89;101035.13;5039954;28;19919;-72
2024/01/14 06:53:32;;;;;;;;;;;;;;;22.33;29.05;101035.31;5034380;28;19917;-72
2024/01/14 06:55:57;;;;;;;;;;;;;;;22.30;29.09;101027.56;5036777;28;19917;-72
2024/01/14 06:58:22;;;;;;;;;;;;;;;22.27;28.98;101027.94;5038164;28;19921;-72
2024/01/14 07:00:48;;;;;;;;;;;;;;;22.24;29.08;101031.88;5037510;28;19928;-72
2024/01/14 07:03:13;;;;;;;;;;;;;;;22.23;28.96;101032.06;5042192;28;19917;-71
2024/01/14 07:05:38;;;;;;;;;;;;;;;22.20;29.06;101028.69;5032707;28;19925;-72
2024/01/14 07:08:05;;;;;;;;;;;;;;;22.16;29.32;101038.22;5038462;28;19928;-72
2024/01/14 07:10:30;;;;;;;;;;;;;;;22.13;29.48;101038.59;5040847;28;19913;-72
2024/01/14 07:12:55;;;;;;;;;;;;;;;22.08;29.32;101038.28;5045353;28;19921;-71
2024/01/14 07:15:20;;;;;;;;;;;;;;;22.02;29.39;101040.91;5037906;28;19923;-73
2024/01/14 07:17:45;;;;;;;;;;;;;;;21.99;29.48;101041.25;5032688;28;19921;-72
2024/01/14 07:20:11;;;;;;;;;;;;;;;21.93;29.43;101040.97;5037197;28;19963;-72
2024/01/14 07:22:36;;;;;;;;;;;;;;;21.89;29.88;101031.56;5034314;28;19916;-71
2024/01/14 07:25:02;;;;;;;;;;;;;;;21.88;29.54;101040.69;5038079;28;19917;-71
2024/01/14 07:27:27;;;;;;;;;;;;;;;21.85;29.74;101030.25;5036662;28;19928;-72
2024/01/14 07:29:52;;;;;;;;;;;;;;;21.81;29.76;101031.63;5030412;28;20362;-71
2024/01/14 07:32:17;;;;;;;;;;;;;;;21.79;30.09;101027.41;5050674;28;19936;-71
2024/01/14 07:34:42;;;;;;;;;;;;;;;21.74;30.28;101027.97;5054381;28;19913;-72
2024/01/14 07:37:08;;;;;;;;;;;;;;;21.74;30.30;101032.53;5045917;28;19914;-74
2024/01/14 07:39:33;;;;;;;;;;;;;;;21.73;30.54;101018.19;5041209;28;19923;-72
2024/01/14 07:41:59;;;;;;;;;;;;;;;21.71;30.27;101033.78;5036633;28;19913;-72
2024/01/14 07:44:24;;;;;;;;;;;;;;;21.69;30.81;101033.09;5037186;28;19987;-72
2024/01/14 07:46:49;;;;;;;;;;;;;;;21.69;30.89;101022.28;5039706;28;19971;-72
2024/01/14 07:49:14;;;;;;;;;;;;;;;21.67;30.61;101032.47;5042415;28;19924;-73
2024/01/14 07:51:39;;;;;;;;;;;;;;;21.65;30.79;101034.50;5022436;28;19913;-72
2024/01/14 07:54:05;;;;;;;;;;;;;;;21.64;31.01;101030.94;5042246;28;19913;-72
2024/01/14 07:56:30;;;;;;;;;;;;;;;21.65;30.99;101026.38;5034825;28;19916;-72
2024/01/14 07:58:55;;;;;;;;;;;;;;;21.64;31.06;101035.53;5034413;28;20439;-72
2024/01/14 08:01:20;;;;;;;;;;;;;;;21.63;31.04;101037.41;5041858;28;19916;-73
2024/01/14 08:03:46;;;;;;;;;;;;;;;21.64;31.04;101043.66;5043938;28;19936;-72
2024/01/14 08:06:11;;;;;;;;;;;;;;;21.62;31.11;101046.53;5027394;28;19925;-71
2024/01/14 08:08:37;;;;;;;;;;;;;;;21.62;30.88;101042.97;5036501;28;20354;-72
2024/01/14 08:11:02;;;;;;;;;;;;;;;21.61;30.99;101034.00;5036879;28;20337;-74
2024/01/14 08:13:28;;;;;;;;;;;;;;;21.59;30.95;101033.38;5034238;28;19989;-72
2024/01/14 08:15:53;;;;;;;;;;;;;;;21.59;31.18;101029.84;5042999;28;19921;-74
2024/01/14 08:18:19;;;;;;;;;;;;;;;21.57;31.09;101031.88;5042783;28;19913;-73
2024/01/14 08:20:44;;;;;;;;;;;;;;;21.55;31.01;101025.81;5044788;28;19962;-72
2024/01/14 08:23:10;;;;;;;;;;;;;;;21.55;31.12;101025.81;5044211;28;19963;-72
2024/01/14 08:25:35;;;;;;;;;;;;;;;21.54;31.25;101019.56;5032192;28;20004;-72
2024/01/14 08:28:00;;;;;;;;;;;;;;;21.53;31.03;101019.72;5031133;28;19925;-72
2024/01/14 08:30:25;;;;;;;;;;;;;;;21.53;31.05;101022.44;5039983;28;19929;-72
2024/01/14 08:32:50;;;;;;;;;;;;;;;21.51;31.23;101017.22;5031466;28;19925;-72
2024/01/14 08:35:17;;;;;;;;;;;;;;;21.50;31.22;101018.25;5034276;28;19924;-73
2024/01/14 08:37:48;;;;;;;;;;;;;;;21.51;31.48;101008.25;5041915;28;19923;-73
2024/01/14 08:40:13;;;;;;;;;;;;;;;21.50;31.08;101015.53;5033351;28;19917;-73
2024/01/14 08:42:44;;;;;;;;;;;;;;;21.50;31.33;101023.66;5041825;28;19924;-76
2024/01/14 08:45:09;;;;;;;;;;;;;;;21.49;31.04;101013.84;5019471;28;19917;-77
2024/01/14 08:47:34;;;;;;;;;;;;;;;21.46;31.28;101016.94;5034647;28;19967;-77
2024/01/14 08:50:00;;;;;;;;;;;;;;;21.44;31.12;101011.69;5039678;28;19913;-75
2024/01/14 08:52:25;;;;;;;;;;;;;;;21.44;31.38;101006.28;5037677;28;19920;-77
2024/01/14 08:54:51;;;;;;;;;;;;;;;21.43;31.02;101007.31;5040250;28;19924;-73
2024/01/14 08:57:16;;;;;;;;;;;;;;;21.43;31.18;101001.91;5045374;28;20036;-75
2024/01/14 08:59:42;;;;;;;;;;;;;;;21.42;31.08;101002.94;5035390;28;19916;-77
2024/01/14 09:02:07;;;;;;;;;;;;;;;21.42;31.00;100997.50;5035781;28;20003;-75
2024/01/14 09:04:32;;;;;;;;;;;;;;;21.42;31.11;100994.81;5037036;28;20013;-76
2024/01/14 09:06:58;;;;;;;;;;;;;;;21.42;31.05;101007.50;5043559;28;20012;-77
2024/01/14 09:09:23;;;;;;;;;;;;;;;21.42;31.38;101000.22;5036249;28;19918;-77
2024/01/14 09:11:48;;;;;;;;;;;;;;;21.41;31.33;101000.41;5045092;28;19917;-76
2024/01/14 09:14:14;;;;;;;;;;;;;;;21.41;31.34;100997.72;5039672;28;19924;-76
2024/01/14 09:16:39;;;;;;;;;;;;;;;21.41;31.30;101003.13;5045405;28;20435;-75
2024/01/14 09:19:04;;;;;;;;;;;;;;;21.41;31.08;100998.53;5037548;28;19912;-75
2024/01/14 09:21:29;;;;;;;;;;;;;;;21.41;31.42;101000.41;5037315;28;19913;-76
2024/01/14 09:23:54;;;;;;;;;;;;;;;21.38;31.47;100993.50;5027349;28;19917;-76
2024/01/14 09:26:20;;;;;;;;;;;;;;;21.38;31.04;100987.25;5032907;28;20289;-75
2024/01/14 09:28:45;;;;;;;;;;;;;;;21.39;31.20;100992.47;5031279;28;19913;-75
2024/01/14 09:31:11;;;;;;;;;;;;;;;21.38;31.22;100990.78;5041780;28;19913;-75
2024/01/14 09:33:37;;;;;;;;;;;;;;;21.38;31.39;100987.25;5043723;28;19975;-76
2024/01/14 09:36:06;;;;;;;;;;;;;;;21.36;31.08;100992.81;5034655;28;19920;-75
2024/01/14 09:38:31;;;;;;;;;;;;;;;21.36;31.35;100989.28;5032702;28;20269;-75
2024/01/14 09:40:57;;;;;;;;;;;;;;;21.35;31.08;100982.19;5041803;28;19944;-75
2024/01/14 09:43:22;;;;;;;;;;;;;;;21.35;31.46;100988.44;5048409;28;19924;-75
2024/01/14 09:45:47;;;;;;;;;;;;;;;21.34;31.41;100988.63;5046480;28;19924;-75
2024/01/14 09:48:15;;;;;;;;;;;;;;;21.32;31.03;100988.78;5035325;28;20059;-76
2024/01/14 09:50:40;;;;;;;;;;;;;;;21.33;31.30;100987.78;5037667;28;19913;-76
2024/01/14 09:53:09;;;;;;;;;;;;;;;21.32;31.49;100983.38;5037312;28;20020;-77
2024/01/14 09:55:34;;;;;;;;;;;;;;;21.32;31.23;100987.97;5039528;28;19925;-77
2024/01/14 09:57:59;;;;;;;;;;;;;;;21.30;31.54;100985.41;5038796;28;19917;-77
2024/01/14 10:00:25;;;;;;;;;;;;;;;21.29;31.24;100975.63;5042743;28;19921;-77
2024/01/14 10:02:51;;;;;;;;;;;;;;;21.29;31.47;100978.34;5032009;28;19917;-76
2024/01/14 10:05:16;;;;;;;;;;;;;;;21.28;31.43;100978.50;5044786;28;19943;-76
2024/01/14 10:07:43;;;;;;;;;;;;;;;21.25;31.55;100973.47;5041303;28;19960;-77
2024/01/14 10:10:08;;;;;;;;;;;;;;;21.26;31.48;100977.84;5021605;28;19936;-72
2024/01/14 10:12:34;;;;;;;;;;;;;;;21.26;31.36;100969.75;5037158;28;19917;-77
2024/01/14 10:14:59;;;;;;;;;;;;;;;21.25;31.19;100971.59;5039981;28;19920;-77
2024/01/14 10:17:24;;;;;;;;;;;;;;;21.24;31.43;100961.81;5038357;28;19913;-78
2024/01/14 10:19:53;;;;;;;;;;;;;;;21.23;31.52;100952.84;5035755;28;19913;-74
2024/01/14 10:22:19;;;;;;;;;;;;;;;21.25;31.52;100949.13;5039105;28;19919;-72
2024/01/14 10:24:51;;;;;;;;;;;;;;;21.25;31.37;100946.44;5037958;28;19921;-73
2024/01/14 10:27:16;;;;;;;;;;;;;;;21.24;31.67;100945.59;5043851;28;19929;-73
2024/01/14 10:29:41;;;;;;;;;;;;;;;21.24;31.54;100937.47;5042845;28;19997;-75
2024/01/14 10:32:07;;;;;;;;;;;;;;;21.25;31.66;100933.75;5044941;28;20670;-74
2024/01/14 10:34:32;;;;;;;;;;;;;;;21.27;31.32;100925.44;5036685;28;19920;-72
2024/01/14 10:37:01;;;;;;;;;;;;;;;21.25;31.67;100933.75;5035988;28;19920;-73
2024/01/14 10:39:32;;;;;;;;;;;;;;;21.27;31.62;100920.88;5041768;28;19917;-72
2024/01/14 10:41:58;;;;;;;;;;;;;;;21.29;31.71;100915.31;5034892;28;19940;-72
2024/01/14 10:44:23;;;;;;;;;;;;;;;21.29;31.73;100907.19;5033001;28;19912;-72
2024/01/14 10:46:49;;;;;;;;;;;;;;;21.30;31.86;100900.75;5035981;28;20071;-72
2024/01/14 10:49:14;;;;;;;;;;;;;;;21.31;31.97;100900.53;5029876;28;19920;-72
2024/01/14 10:51:42;;;;;;;;;;;;;;;21.31;31.91;100895.13;5047336;28;19913;-73
2024/01/14 10:54:09;;;;;;;;;;;;;;;21.31;32.01;100892.44;5051955;28;19913;-75
2024/01/14 10:56:39;;;;;;;;;;;;;;;21.32;32.03;100896.00;5048525;28;19984;-72
2024/01/14 10:59:04;;;;;;;;;;;;;;;21.34;31.82;100877.75;5041461;28;19917;-75
2024/01/14 11:01:30;;;;;;;;;;;;;;;21.34;31.87;100875.88;5037924;28;19968;-75
2024/01/14 11:03:55;;;;;;;;;;;;;;;21.37;31.74;100880.09;5034054;28;19917;-74
2024/01/14 11:06:20;;;;;;;;;;;;;;;21.38;31.76;100870.94;5041905;28;19928;-72
2024/01/14 11:08:46;;;;;;;;;;;;;;;21.42;31.71;100864.13;5036105;28;19944;-73
2024/01/14 11:11:11;;;;;;;;;;;;;;;21.43;31.86;100852.28;5039434;28;19914;-72
2024/01/14 11:13:39;;;;;;;;;;;;;;;21.45;31.84;100852.94;5041799;28;20662;-72
2024/01/14 11:16:09;;;;;;;;;;;;;;;21.46;31.87;100854.63;5035239;28;19937;-72
2024/01/14 11:18:35;;;;;;;;;;;;;;;21.48;31.67;100843.59;5031790;28;19917;-71
2024/01/14 11:21:19;;;;;;;;;;;;;;;21.49;31.80;100856.09;5043360;28;19914;-72
2024/01/14 11:23:44;;;;;;;;;;;;;;;21.50;31.90;100841.56;5039495;28;19923;-73
2024/01/14 11:26:10;;;;;;;;;;;;;;;21.54;31.87;100837.47;5048926;28;20011;-73
2024/01/14 11:28:35;;;;;;;;;;;;;;;21.55;31.82;100833.72;5044337;28;20362;-74
2024/01/14 11:31:02;;;;;;;;;;;;;;;21.57;31.70;100818.13;5037244;28;20733;-74
2024/01/14 11:33:31;;;;;;;;;;;;;;;21.59;31.80;100821.50;5030907;28;19924;-73
2024/01/14 11:35:57;;;;;;;;;;;;;;;21.60;31.66;100806.94;5041815;28;19972;-74
2024/01/14 11:38:35;;;;;;;;;;;;;;;21.61;31.53;100816.72;5043887;28;19933;-73
2024/01/14 11:41:19;;;;;;;;;;;;;;;21.60;31.57;100802.38;5047155;28;19917;-73
2024/01/14 11:43:45;;;;;;;;;;;;;;;21.61;31.39;100808.59;5040740;28;20391;-73
2024/01/14 11:46:30;;;;;;;;;;;;;;;21.62;31.47;100810.28;5033759;28;19917;-72
2024/01/14 11:48:55;;;;;;;;;;;;;;;21.62;31.35;100800.31;5039919;28;19917;-74
2024/01/14 11:51:21;;;;;;;;;;;;;;;21.63;31.23;100793.88;5046215;28;19941;-73
2024/01/14 11:53:46;;;;;;;;;;;;;;;21.66;31.17;100788.09;5037259;28;19921;-73
2024/01/14 11:56:11;;;;;;;;;;;;;;;21.68;31.10;100787.91;5035202;28;19913;-70
2024/01/14 11:58:36;;;;;;;;;;;;;;;21.68;31.26;100774.38;5038966;28;19967;-70
2024/01/14 12:01:02;;;;;;;;;;;;;;;21.70;31.14;100773.13;5035043;28;20321;-69
2024/01/14 12:03:27;;;;;;;;;;;;;;;21.73;31.13;100763.81;5045230;28;19967;-70
2024/01/14 12:05:54;;;;;;;;;;;;;;;21.74;30.90;100761.94;5039881;28;19922;-70
2024/01/14 12:08:20;;;;;;;;;;;;;;;21.75;30.84;100760.88;5035899;28;20812;-70
2024/01/14 12:10:46;;;;;;;;;;;;;;;21.75;31.05;100740.09;5037253;28;19940;-70
2024/01/14 12:13:11;;;;;;;;;;;;;;;21.77;31.08;100743.44;5040053;28;19913;-70
2024/01/14 12:15:36;;;;;;;;;;;;;;;21.78;30.77;100737.00;5041152;28;19914;-70
2024/01/14 12:18:02;;;;;;;;;;;;;;;21.80;31.05;100729.53;5042910;28;19941;-73
2024/01/14 12:20:27;;;;;;;;;;;;;;;21.82;30.74;100722.06;5033508;28;19955;-73
2024/01/14 12:22:56;;;;;;;;;;;;;;;21.85;30.71;100720.84;5035761;28;20393;-74
2024/01/14 12:25:21;;;;;;;;;;;;;;;21.87;30.77;100713.34;5043035;28;19936;-74
2024/01/14 12:27:46;;;;;;;;;;;;;;;21.89;30.48;100704.03;5038427;28;19917;-73